Time;durP1;ratioP1;P1;durP2;ratioP2;P2;SDS_P1;SDS_P2;PMS_P1;PMS_P2;Temp;Humidity;BMP_temperature;BMP_pressure;BME280_temperature;BME280_humidity;BME280_pressure;Samples;Min_cycle;Max_cycle;Signal;HPM_P1;HPM_P2
2022/07/07 00:01:47;;;;;;;2.53;0.80;;;15.40;99.90;;;;;;5034253;28;20381;-82
2022/07/07 00:04:14;;;;;;;1.95;0.60;;;15.10;99.90;;;;;;5033149;28;20413;-82
2022/07/07 00:06:42;;;;;;;3.20;0.60;;;14.90;99.90;;;;;;5032809;28;20381;-82
2022/07/07 00:09:09;;;;;;;2.45;0.70;;;14.70;99.90;;;;;;5032929;28;20373;-81
2022/07/07 00:11:36;;;;;;;3.38;0.70;;;14.50;99.90;;;;;;5030317;28;20389;-82
2022/07/07 00:14:07;;;;;;;2.38;0.75;;;14.40;99.90;;;;;;5021274;28;20425;-81
2022/07/07 00:16:34;;;;;;;1.80;0.60;;;14.40;99.90;;;;;;5015315;28;20819;-81
2022/07/07 00:19:02;;;;;;;3.03;0.80;;;14.30;99.90;;;;;;5018913;28;20389;-83
2022/07/07 00:21:29;;;;;;;3.57;1.00;;;14.30;99.90;;;;;;5031617;28;20912;-85
2022/07/07 00:23:56;;;;;;;3.03;0.88;;;14.30;99.90;;;;;;5031983;28;20734;-85
2022/07/07 00:26:23;;;;;;;2.97;1.27;;;14.30;99.90;;;;;;5032472;28;20428;-79
2022/07/07 00:28:51;;;;;;;3.20;1.00;;;14.40;99.90;;;;;;5031422;28;20714;-82
2022/07/07 00:31:18;;;;;;;2.58;0.90;;;14.50;99.90;;;;;;5028149;28;20934;-83
2022/07/07 00:33:48;;;;;;;2.60;0.80;;;14.60;99.90;;;;;;5029464;28;20455;-83
2022/07/07 00:36:15;;;;;;;2.28;0.77;;;14.70;99.90;;;;;;5028500;28;20443;-83
2022/07/07 00:38:42;;;;;;;5.30;0.80;;;14.80;99.90;;;;;;5023755;28;20834;-83
2022/07/07 00:41:09;;;;;;;3.17;0.93;;;14.90;99.90;;;;;;5031910;28;20427;-83
2022/07/07 00:43:42;;;;;;;3.17;0.80;;;15.00;99.90;;;;;;5032095;28;20440;-82
2022/07/07 00:46:09;;;;;;;2.50;0.80;;;15.20;99.90;;;;;;5031902;28;20412;-82
2022/07/07 00:48:38;;;;;;;3.40;0.60;;;15.30;99.90;;;;;;5030776;28;20868;-82
2022/07/07 00:51:10;;;;;;;2.60;0.75;;;15.60;99.90;;;;;;5032127;28;20504;-83
2022/07/07 00:53:38;;;;;;;3.55;0.63;;;15.70;99.90;;;;;;5032028;28;20370;-83
2022/07/07 00:56:06;;;;;;;2.58;0.70;;;15.80;99.90;;;;;;5031920;28;20386;-83
2022/07/07 00:58:33;;;;;;;3.53;0.80;;;15.80;99.90;;;;;;5019261;28;20515;-83
2022/07/07 01:01:02;;;;;;;1.77;0.60;;;15.90;99.90;;;;;;5032368;28;20405;-82
2022/07/07 01:03:30;;;;;;;2.17;0.85;;;15.90;99.90;;;;;;5031758;28;20385;-83
2022/07/07 01:05:58;;;;;;;2.30;0.80;;;15.90;99.90;;;;;;5032257;28;20449;-84
2022/07/07 01:08:27;;;;;;;4.05;0.80;;;16.00;99.90;;;;;;5032321;28;20439;-83
2022/07/07 01:10:54;;;;;;;2.42;0.80;;;16.10;99.90;;;;;;5032424;28;20381;-83
2022/07/07 01:13:21;;;;;;;2.20;0.80;;;16.30;99.90;;;;;;5021948;28;20391;-84
2022/07/07 01:15:49;;;;;;;3.42;0.80;;;16.40;99.90;;;;;;5030632;28;20397;-84
2022/07/07 01:18:17;;;;;;;2.55;0.90;;;16.60;99.90;;;;;;5030928;28;20476;-84
2022/07/07 01:20:49;;;;;;;3.42;0.95;;;16.70;99.90;;;;;;5030385;28;20417;-85
2022/07/07 01:23:16;;;;;;;2.73;0.90;;;16.70;99.90;;;;;;5023165;28;20379;-83
2022/07/07 01:25:43;;;;;;;2.78;0.80;;;16.90;99.90;;;;;;5027793;28;20683;-83
2022/07/07 01:28:10;;;;;;;3.22;0.73;;;16.90;99.90;;;;;;5027400;28;20446;-83
2022/07/07 01:30:59;;;;;;;;;;;;;;;;;;;;;
2022/07/07 01:33:27;;;;;;;3.67;1.00;;;17.20;99.90;;;;;;5148169;22;20436;-82
2022/07/07 01:35:54;;;;;;;2.53;0.80;;;17.30;99.90;;;;;;5063916;28;20381;-83
2022/07/07 01:38:21;;;;;;;3.38;0.85;;;17.30;99.90;;;;;;5071169;28;20451;-83
2022/07/07 01:40:48;;;;;;;2.25;0.77;;;17.40;99.90;;;;;;5059420;28;20480;-83
2022/07/07 01:43:15;;;;;;;3.95;0.90;;;17.40;99.90;;;;;;5057237;28;20388;-83
2022/07/07 01:45:42;;;;;;;2.40;0.73;;;17.40;99.90;;;;;;5064500;28;20431;-83
2022/07/07 01:48:09;;;;;;;6.80;0.90;;;17.40;99.90;;;;;;5057707;28;20366;-85
2022/07/07 01:50:37;;;;;;;2.53;0.80;;;17.50;99.90;;;;;;5072096;28;20441;-83
2022/07/07 01:53:04;;;;;;;3.55;0.80;;;17.60;99.90;;;;;;5057446;28;20413;-83
2022/07/07 01:55:31;;;;;;;1.98;0.70;;;17.60;99.90;;;;;;5068637;28;20660;-85
2022/07/07 01:57:58;;;;;;;2.85;0.80;;;17.70;99.90;;;;;;5053237;28;20449;-83
2022/07/07 02:00:25;;;;;;;3.20;0.70;;;17.70;99.90;;;;;;5071895;28;20415;-83
2022/07/07 02:02:52;;;;;;;3.00;0.70;;;17.70;99.90;;;;;;5083878;28;20374;-83
2022/07/07 02:05:19;;;;;;;2.30;0.80;;;17.80;99.90;;;;;;5063994;28;20406;-82
2022/07/07 02:07:47;;;;;;;2.85;0.70;;;17.80;99.90;;;;;;5072244;28;20372;-83
2022/07/07 02:11:12;;;;;;;2.58;0.60;;;17.90;99.90;;;;;;5087065;28;20393;-83
2022/07/07 02:13:02;;;;;;;3.60;0.90;;;17.90;99.90;;;;;;5060695;28;20386;-82
2022/07/07 02:15:30;;;;;;;2.30;0.60;;;18.00;99.90;;;;;;5071644;28;20396;-82
2022/07/07 02:17:57;;;;;;;2.65;0.80;;;18.00;99.90;;;;;;5071646;28;20398;-86
2022/07/07 02:20:27;;;;;;;2.77;0.73;;;18.00;99.90;;;;;;5050008;28;20744;-85
2022/07/07 02:22:57;;;;;;;2.00;0.60;;;18.00;99.90;;;;;;5054628;28;20393;-85
2022/07/07 02:25:27;;;;;;;3.92;0.50;;;18.00;99.90;;;;;;5062143;28;20374;-83
2022/07/07 02:27:54;;;;;;;1.63;0.50;;;17.90;99.90;;;;;;5052038;28;20378;-84
2022/07/07 02:30:22;;;;;;;2.53;0.73;;;18.00;99.90;;;;;;5052911;28;20892;-85
2022/07/07 02:32:49;;;;;;;1.55;0.52;;;18.10;99.90;;;;;;5069393;28;20438;-86
2022/07/07 02:35:16;;;;;;;2.08;0.60;;;18.10;99.90;;;;;;5068721;28;20443;-85
2022/07/07 02:37:43;;;;;;;1.55;0.60;;;18.10;99.90;;;;;;5070533;28;20374;-83
2022/07/07 02:40:11;;;;;;;3.13;0.60;;;18.20;99.90;;;;;;5070274;28;20408;-84
2022/07/07 02:42:39;;;;;;;1.60;0.50;;;18.20;99.90;;;;;;5070231;28;20386;-83
2022/07/07 02:45:06;;;;;;;2.63;0.77;;;18.20;99.90;;;;;;5062284;28;20388;-83
2022/07/07 02:47:33;;;;;;;1.85;0.60;;;18.20;99.90;;;;;;5050206;28;20885;-83
2022/07/07 02:50:01;;;;;;;1.97;0.60;;;18.20;99.90;;;;;;5070210;28;20942;-84
2022/07/07 02:52:28;;;;;;;2.00;0.50;;;18.30;99.90;;;;;;5057536;28;20379;-84
2022/07/07 02:54:55;;;;;;;3.95;0.80;;;18.40;99.90;;;;;;5068591;28;20389;-84
2022/07/07 02:57:23;;;;;;;3.17;0.60;;;18.50;99.90;;;;;;5070141;28;20404;-84
2022/07/07 02:59:51;;;;;;;1.77;0.50;;;18.60;99.90;;;;;;5073002;28;20450;-84
2022/07/07 03:02:18;;;;;;;3.13;0.70;;;18.60;99.90;;;;;;5064485;28;20415;-84
2022/07/07 03:04:45;;;;;;;2.47;0.70;;;18.50;99.90;;;;;;5069421;28;20370;-83
2022/07/07 03:07:12;;;;;;;2.20;0.50;;;18.50;99.90;;;;;;5073852;28;20396;-84
2022/07/07 03:09:39;;;;;;;1.63;0.50;;;18.50;99.90;;;;;;5073644;28;20382;-84
2022/07/07 03:12:07;;;;;;;1.85;0.60;;;18.50;99.90;;;;;;5052015;28;20869;-85
2022/07/07 03:14:34;;;;;;;2.53;0.50;;;18.50;99.90;;;;;;5073981;28;20424;-85
2022/07/07 03:17:01;;;;;;;1.38;0.50;;;18.40;99.90;;;;;;5073717;28;20413;-86
2022/07/07 03:19:28;;;;;;;1.60;0.60;;;18.40;99.90;;;;;;5073696;28;20914;-86
2022/07/07 03:21:55;;;;;;;2.10;0.50;;;18.30;99.90;;;;;;5060352;28;20486;-85
2022/07/07 03:24:22;;;;;;;1.43;0.47;;;18.40;99.90;;;;;;5072734;28;20406;-85
2022/07/07 03:26:50;;;;;;;2.45;0.70;;;18.40;99.90;;;;;;5062029;28;20372;-85
2022/07/07 03:29:17;;;;;;;1.60;0.45;;;18.40;99.90;;;;;;5049966;28;20789;-85
2022/07/07 03:31:44;;;;;;;1.25;0.40;;;18.40;99.90;;;;;;5053184;28;20427;-85
2022/07/07 03:34:11;;;;;;;1.75;0.55;;;18.50;99.90;;;;;;5073044;28;20417;-85
2022/07/07 03:36:38;;;;;;;2.17;0.60;;;18.70;99.90;;;;;;5073607;28;20382;-85
2022/07/07 03:39:05;;;;;;;1.60;0.60;;;18.60;99.90;;;;;;5072854;28;20382;-85
2022/07/07 03:41:32;;;;;;;2.42;0.52;;;18.60;99.90;;;;;;5059907;28;20455;-84
2022/07/07 03:44:00;;;;;;;1.63;0.50;;;18.60;99.90;;;;;;5074182;28;20374;-86
2022/07/07 03:46:27;;;;;;;2.38;0.60;;;18.70;99.90;;;;;;5073146;28;20382;-85
2022/07/07 03:48:54;;;;;;;2.20;0.55;;;18.70;99.90;;;;;;5073061;28;20498;-85
2022/07/07 03:51:21;;;;;;;1.02;0.60;;;18.90;99.90;;;;;;5073183;28;20390;-85
2022/07/07 03:53:49;;;;;;;2.95;0.57;;;19.00;99.90;;;;;;5063974;28;20384;-85
2022/07/07 03:56:16;;;;;;;1.95;0.43;;;19.00;99.90;;;;;;5069260;28;20374;-85
2022/07/07 03:58:45;;;;;;;2.10;0.50;;;18.80;99.90;;;;;;5073729;28;20374;-85
2022/07/07 04:01:19;;;;;;;1.83;0.60;;;18.90;99.90;;;;;;5059048;28;20883;-85
2022/07/07 04:03:49;;;;;;;2.55;0.80;;;18.80;99.90;;;;;;5059728;28;20754;-85
2022/07/07 04:06:16;;;;;;;3.07;0.80;;;18.80;99.90;;;;;;5072897;28;20470;-85
2022/07/07 04:08:44;;;;;;;2.40;0.80;;;18.90;99.90;;;;;;5073134;28;20397;-85
2022/07/07 04:11:11;;;;;;;3.88;1.10;;;18.90;99.90;;;;;;5064240;28;20371;-84
2022/07/07 04:13:38;;;;;;;3.35;0.80;;;18.90;99.90;;;;;;5053464;28;20372;-85
2022/07/07 04:16:05;;;;;;;3.13;0.90;;;18.90;99.90;;;;;;5059439;28;20875;-84
2022/07/07 04:18:32;;;;;;;3.72;0.90;;;18.90;99.90;;;;;;5046385;28;20368;-85
2022/07/07 04:20:59;;;;;;;3.97;0.97;;;18.90;99.90;;;;;;5072466;28;20455;-86
2022/07/07 04:23:27;;;;;;;4.38;1.10;;;18.90;99.90;;;;;;5072935;28;20370;-85
2022/07/07 04:25:54;;;;;;;3.33;0.90;;;18.80;99.90;;;;;;5058667;28;20390;-85
2022/07/07 04:28:21;;;;;;;2.83;0.98;;;18.70;99.90;;;;;;5071631;28;20408;-86
2022/07/07 04:30:48;;;;;;;2.70;0.93;;;18.70;99.90;;;;;;5071380;28;20382;-85
2022/07/07 04:33:15;;;;;;;2.40;0.80;;;18.60;99.90;;;;;;5072559;28;20399;-85
2022/07/07 04:35:43;;;;;;;2.75;0.70;;;18.60;99.90;;;;;;5072437;28;20457;-85
2022/07/07 04:38:10;;;;;;;2.22;0.77;;;18.50;99.90;;;;;;5072440;28;20393;-86
2022/07/07 04:40:37;;;;;;;1.75;0.70;;;18.40;99.90;;;;;;5073032;28;20499;-85
2022/07/07 04:43:04;;;;;;;2.65;0.70;;;18.40;99.90;;;;;;5071865;28;20453;-85
2022/07/07 04:45:31;;;;;;;3.70;1.00;;;18.40;99.90;;;;;;5072250;28;20405;-86
2022/07/07 04:47:58;;;;;;;3.63;1.00;;;18.60;99.90;;;;;;5070623;28;20462;-85
2022/07/07 04:50:25;;;;;;;4.73;0.93;;;18.70;99.90;;;;;;5071807;28;20382;-85
2022/07/07 04:52:53;;;;;;;2.72;0.80;;;18.90;99.90;;;;;;5056460;28;20449;-85
2022/07/07 04:55:20;;;;;;;2.85;0.63;;;19.00;99.90;;;;;;5071858;28;20414;-85
2022/07/07 04:57:47;;;;;;;1.70;0.53;;;19.10;99.80;;;;;;5070346;28;20428;-85
2022/07/07 05:00:15;;;;;;;1.77;0.70;;;18.90;99.50;;;;;;5071869;28;20451;-85
2022/07/07 05:02:42;;;;;;;2.30;0.60;;;18.90;99.90;;;;;;5058929;28;20740;-87
2022/07/07 05:05:10;;;;;;;1.83;0.90;;;18.70;99.90;;;;;;5056538;28;20374;-86
2022/07/07 05:07:37;;;;;;;1.55;0.60;;;18.70;99.90;;;;;;5060748;28;20442;-86
2022/07/07 05:10:04;;;;;;;2.55;0.80;;;18.70;99.90;;;;;;5069155;28;20416;-86
2022/07/07 05:12:31;;;;;;;2.92;0.70;;;18.70;99.90;;;;;;5057279;28;20382;-86
2022/07/07 05:14:58;;;;;;;1.77;0.60;;;18.70;99.90;;;;;;5071632;28;20382;-86
2022/07/07 05:17:26;;;;;;;1.75;0.68;;;18.80;99.90;;;;;;5074018;28;20375;-85
2022/07/07 05:19:53;;;;;;;2.95;0.70;;;19.00;99.90;;;;;;5075815;28;20397;-85
2022/07/07 05:22:20;;;;;;;1.42;0.60;;;19.10;99.90;;;;;;5076302;28;20385;-85
2022/07/07 05:24:47;;;;;;;1.92;0.68;;;19.20;99.70;;;;;;5075523;28;20377;-84
2022/07/07 05:27:14;;;;;;;3.23;0.70;;;19.20;99.70;;;;;;5058534;28;20435;-87
2022/07/07 05:29:41;;;;;;;2.33;0.70;;;19.30;99.70;;;;;;5070245;28;20388;-84
2022/07/07 05:32:08;;;;;;;2.65;0.70;;;19.40;99.10;;;;;;5046967;28;20421;-82
2022/07/07 05:34:36;;;;;;;7.45;0.70;;;19.30;99.30;;;;;;5071255;28;20393;-85
2022/07/07 05:37:03;;;;;;;2.17;0.70;;;19.30;99.50;;;;;;5071522;28;20375;-85
2022/07/07 05:39:30;;;;;;;1.85;0.75;;;19.30;99.90;;;;;;5041933;28;20914;-84
2022/07/07 05:41:57;;;;;;;3.25;0.50;;;19.30;99.40;;;;;;5055423;28;20467;-85
2022/07/07 05:44:24;;;;;;;1.57;0.60;;;19.30;99.50;;;;;;5050582;28;20524;-84
2022/07/07 05:46:51;;;;;;;1.00;0.50;;;19.20;99.50;;;;;;5060004;28;20420;-83
2022/07/07 05:49:20;;;;;;;2.03;0.60;;;19.20;99.70;;;;;;5058744;28;20371;-83
2022/07/07 05:51:47;;;;;;;2.08;0.50;;;19.10;99.00;;;;;;5072721;28;20369;-84
2022/07/07 05:54:14;;;;;;;2.60;0.60;;;19.00;99.30;;;;;;5073337;28;20844;-85
2022/07/07 05:56:42;;;;;;;1.90;0.60;;;19.10;99.80;;;;;;5062919;28;20403;-85
2022/07/07 05:59:09;;;;;;;1.20;0.50;;;19.20;99.50;;;;;;5052566;28;20436;-84
2022/07/07 06:01:36;;;;;;;2.17;0.50;;;19.10;99.20;;;;;;5047766;28;20950;-84
2022/07/07 06:04:06;;;;;;;2.10;0.60;;;19.00;99.40;;;;;;5060813;28;20374;-84
2022/07/07 06:06:33;;;;;;;1.42;0.60;;;18.90;99.90;;;;;;5042438;28;20516;-84
2022/07/07 06:09:00;;;;;;;1.77;0.60;;;18.70;99.90;;;;;;5070943;28;20382;-85
2022/07/07 06:11:27;;;;;;;1.75;0.60;;;18.50;99.90;;;;;;5057138;28;20400;-86
2022/07/07 06:13:54;;;;;;;4.63;0.60;;;18.50;99.90;;;;;;5050585;28;20896;-85
2022/07/07 06:16:38;;;;;;;2.70;0.60;;;18.30;99.90;;;;;;5071371;28;20957;-87
2022/07/07 06:19:06;;;;;;;2.05;0.80;;;18.20;99.90;;;;;;5070372;28;20378;-83
2022/07/07 06:21:33;;;;;;;7.85;1.70;;;18.10;99.90;;;;;;5051005;28;20416;-86
2022/07/07 06:24:00;;;;;;;7.40;1.98;;;17.90;99.90;;;;;;5048144;28;20415;-84
2022/07/07 06:26:27;;;;;;;8.23;1.83;;;17.70;99.90;;;;;;5070786;28;20378;-86
2022/07/07 06:28:54;;;;;;;8.40;1.92;;;17.40;99.90;;;;;;5070495;28;20485;-85
2022/07/07 06:31:22;;;;;;;6.80;2.30;;;17.10;99.90;;;;;;5054833;28;20456;-85
2022/07/07 06:33:49;;;;;;;8.80;3.00;;;16.90;99.90;;;;;;5066685;28;20742;-87
2022/07/07 06:36:17;;;;;;;8.68;2.53;;;16.70;99.90;;;;;;5074455;28;20393;-88
2022/07/07 06:38:44;;;;;;;10.07;3.20;;;16.60;99.90;;;;;;5074874;28;20376;-83
2022/07/07 06:41:12;;;;;;;10.98;3.53;;;16.40;99.90;;;;;;5074302;28;20870;-83
2022/07/07 06:43:39;;;;;;;9.98;3.45;;;16.20;99.90;;;;;;5074387;28;20370;-84
2022/07/07 06:46:06;;;;;;;10.40;3.58;;;16.00;99.90;;;;;;5070382;28;20885;-84
2022/07/07 06:48:33;;;;;;;10.63;3.97;;;15.90;99.90;;;;;;5074456;28;20853;-82
2022/07/07 06:51:00;;;;;;;11.40;3.92;;;15.80;99.90;;;;;;5068110;28;20441;-82
2022/07/07 06:53:27;;;;;;;9.18;2.25;;;15.60;99.90;;;;;;5049063;28;20864;-85
2022/07/07 06:55:55;;;;;;;8.75;2.70;;;15.50;99.90;;;;;;5059844;28;20409;-85
2022/07/07 06:58:22;;;;;;;8.13;3.08;;;15.40;99.90;;;;;;5061299;28;20855;-84
2022/07/07 07:00:49;;;;;;;7.93;2.80;;;15.20;99.90;;;;;;5050979;28;20408;-86
2022/07/07 07:03:16;;;;;;;8.23;2.70;;;15.10;99.90;;;;;;5054755;28;20378;-84
2022/07/07 07:05:43;;;;;;;8.30;2.70;;;14.90;99.90;;;;;;5074011;28;20714;-83
2022/07/07 07:08:10;;;;;;;7.28;2.80;;;14.70;99.90;;;;;;5069017;28;20385;-83
2022/07/07 07:10:37;;;;;;;8.65;2.88;;;14.70;99.90;;;;;;5058520;28;20979;-84
2022/07/07 07:13:04;;;;;;;8.80;2.50;;;14.60;99.90;;;;;;5062822;28;20396;-84
2022/07/07 07:15:32;;;;;;;8.73;2.80;;;14.50;99.90;;;;;;5069312;28;20448;-82
2022/07/07 07:17:59;;;;;;;7.75;2.53;;;14.40;99.90;;;;;;5065964;28;20388;-84
2022/07/07 07:20:26;;;;;;;6.50;2.10;;;14.30;99.90;;;;;;5045863;28;20399;-83
2022/07/07 07:22:53;;;;;;;9.35;2.75;;;14.20;99.90;;;;;;5053924;28;20394;-83
2022/07/07 07:25:20;;;;;;;11.73;2.80;;;14.20;99.90;;;;;;5068238;28;20373;-82
2022/07/07 07:27:47;;;;;;;9.48;3.25;;;14.10;99.90;;;;;;5071652;28;20381;-82
2022/07/07 07:30:15;;;;;;;9.27;2.67;;;14.00;99.90;;;;;;5056570;28;20389;-83
2022/07/07 07:32:44;;;;;;;7.63;2.50;;;14.00;99.90;;;;;;5050777;28;20421;-82
2022/07/07 07:35:12;;;;;;;7.80;2.25;;;13.90;99.90;;;;;;5053799;28;20393;-82
2022/07/07 07:37:39;;;;;;;7.80;2.10;;;13.90;99.90;;;;;;5041854;28;20393;-82
2022/07/07 07:40:09;;;;;;;8.70;2.30;;;13.80;99.90;;;;;;5060633;28;20900;-85
2022/07/07 07:42:37;;;;;;;10.10;2.05;;;13.70;99.90;;;;;;5069659;28;20390;-84
2022/07/07 07:45:11;;;;;;;8.13;2.15;;;13.60;99.90;;;;;;5050089;28;20391;-86
2022/07/07 07:47:45;;;;;;;9.18;2.30;;;13.50;99.90;;;;;;5067995;28;20370;-85
2022/07/07 07:50:14;;;;;;;8.05;2.78;;;13.50;99.90;;;;;;5063501;28;20388;-83
2022/07/07 07:52:42;;;;;;;7.82;2.95;;;13.30;99.90;;;;;;5048395;28;20388;-83
2022/07/07 07:55:12;;;;;;;11.48;3.35;;;13.30;99.90;;;;;;5045074;28;20423;-83
2022/07/07 07:57:40;;;;;;;7.90;3.50;;;13.20;99.90;;;;;;5066142;28;20414;-83
2022/07/07 08:00:10;;;;;;;10.30;3.50;;;13.10;99.90;;;;;;5065725;28;20403;-85
2022/07/07 08:02:37;;;;;;;12.93;3.50;;;13.10;99.90;;;;;;5044826;28;20391;-89
2022/07/07 08:05:08;;;;;;;10.48;3.00;;;13.00;99.90;;;;;;5072323;28;20968;-85
2022/07/07 08:07:35;;;;;;;6.28;2.20;;;13.00;99.90;;;;;;5055442;28;20461;-83
2022/07/07 08:10:02;;;;;;;5.72;1.90;;;13.00;99.90;;;;;;5066460;28;20408;-86
2022/07/07 08:12:30;;;;;;;5.00;3.27;;;13.00;99.90;;;;;;5052184;28;20393;-83
2022/07/07 08:14:57;;;;;;;15.50;11.40;;;12.90;99.90;;;;;;5053863;28;20755;-84
2022/07/07 08:17:24;;;;;;;4.97;1.67;;;12.80;99.90;;;;;;5046950;28;20384;-84
2022/07/07 08:19:51;;;;;;;5.53;2.42;;;12.80;99.90;;;;;;5051158;28;20380;-82
2022/07/07 08:22:18;;;;;;;11.32;6.28;;;12.70;99.90;;;;;;5057141;28;20388;-83
2022/07/07 08:24:46;;;;;;;5.32;1.83;;;12.60;99.90;;;;;;5067490;28;20382;-83
2022/07/07 08:27:14;;;;;;;4.72;1.55;;;12.50;99.90;;;;;;5044043;28;20393;-83
2022/07/07 08:29:42;;;;;;;4.32;1.38;;;12.50;99.90;;;;;;5063057;28;20396;-82
2022/07/07 08:32:14;;;;;;;3.22;1.40;;;12.40;99.90;;;;;;5062248;28;20894;-84
2022/07/07 08:34:42;;;;;;;3.33;1.13;;;12.40;99.90;;;;;;5044524;28;20390;-83
2022/07/07 08:37:10;;;;;;;2.53;1.10;;;12.30;99.90;;;;;;5049565;28;20875;-84
2022/07/07 08:39:37;;;;;;;2.87;1.03;;;12.30;99.90;;;;;;5064365;28;20715;-83
2022/07/07 08:42:05;;;;;;;2.13;1.10;;;12.20;99.90;;;;;;5072005;28;20377;-85
2022/07/07 08:44:33;;;;;;;2.53;1.20;;;12.20;99.90;;;;;;5072084;28;20427;-83
2022/07/07 08:47:01;;;;;;;4.17;1.30;;;12.10;99.90;;;;;;5065593;28;20490;-84
2022/07/07 08:49:29;;;;;;;2.70;1.20;;;12.10;99.90;;;;;;5046993;28;20472;-83
2022/07/07 08:51:57;;;;;;;2.85;1.30;;;12.00;99.90;;;;;;5046396;28;20388;-85
2022/07/07 08:54:25;;;;;;;3.55;1.30;;;12.00;99.90;;;;;;5051787;28;20759;-84
2022/07/07 08:56:54;;;;;;;3.83;1.30;;;11.90;99.90;;;;;;5044331;28;20852;-82
2022/07/07 08:59:22;;;;;;;2.40;1.47;;;11.90;99.90;;;;;;5046565;28;20715;-84
2022/07/07 09:01:56;;;;;;;4.28;1.70;;;11.90;99.90;;;;;;5043701;28;20403;-83
2022/07/07 09:04:24;;;;;;;4.68;1.65;;;11.80;99.90;;;;;;5048106;28;20376;-83
2022/07/07 09:06:54;;;;;;;3.13;1.70;;;11.80;99.90;;;;;;5045301;28;20502;-82
2022/07/07 09:09:46;;;;;;;3.58;1.90;;;11.80;99.90;;;;;;5047472;28;20396;-83
2022/07/07 09:12:18;;;;;;;3.63;2.20;;;11.70;99.90;;;;;;5038972;28;20395;-83
2022/07/07 09:14:50;;;;;;;4.45;2.30;;;11.70;99.90;;;;;;5050963;28;20382;-83
2022/07/07 09:17:17;;;;;;;2.97;2.30;;;11.60;99.90;;;;;;5049797;28;20375;-84
2022/07/07 09:19:57;;;;;;;6.32;2.67;;;11.50;99.90;;;;;;5051218;28;20392;-83
2022/07/07 09:22:46;;;;;;;4.90;2.67;;;11.50;99.90;;;;;;5051303;28;20774;-83
2022/07/07 09:25:15;;;;;;;4.70;2.90;;;11.40;99.90;;;;;;5045438;28;20778;-82
2022/07/07 09:27:59;;;;;;;5.00;2.78;;;11.30;99.90;;;;;;5047087;28;20899;-83
2022/07/07 09:30:35;;;;;;;5.60;2.90;;;11.10;99.90;;;;;;5045041;28;20387;-83
2022/07/07 09:33:04;;;;;;;5.55;3.20;;;11.00;99.90;;;;;;5042551;28;20398;-83
2022/07/07 09:38:22;;;;;;;3.88;1.60;;;10.90;99.90;;;;;;5041089;28;20425;-83
2022/07/07 09:40:59;;;;;;;5.63;1.92;;;10.80;99.90;;;;;;5045790;28;20745;-85
2022/07/07 09:43:32;;;;;;;4.35;1.70;;;10.80;99.90;;;;;;5045561;28;20368;-84
2022/07/07 09:46:13;;;;;;;4.50;1.80;;;10.40;99.90;;;;;;5049341;28;20384;-82
2022/07/07 09:48:43;;;;;;;2.90;1.50;;;10.60;99.90;;;;;;5049811;28;20399;-82
2022/07/07 09:51:16;;;;;;;2.70;1.27;;;10.60;99.90;;;;;;5050933;28;20485;-82
2022/07/07 09:54:07;;;;;;;2.88;1.40;;;10.70;99.90;;;;;;5051057;28;20426;-82
2022/07/07 09:56:44;;;;;;;2.10;1.20;;;10.70;99.90;;;;;;5051323;28;20384;-82
2022/07/07 09:59:13;;;;;;;2.03;1.33;;;10.80;99.90;;;;;;5044188;28;20473;-82
2022/07/07 10:01:45;;;;;;;2.95;1.50;;;10.80;99.90;;;;;;5050335;28;20403;-82
2022/07/07 10:04:14;;;;;;;10.02;2.10;;;10.90;99.90;;;;;;5050954;28;20407;-82
2022/07/07 10:06:43;;;;;;;21.23;2.70;;;10.90;99.90;;;;;;5046860;28;20382;-82
2022/07/07 10:09:21;;;;;;;7.85;2.30;;;10.90;99.90;;;;;;5041587;28;20415;-81
2022/07/07 10:11:55;;;;;;;4.47;2.37;;;10.90;99.90;;;;;;5051229;28;20375;-81
2022/07/07 10:14:34;;;;;;;4.20;2.40;;;10.70;99.90;;;;;;5049097;28;20787;-84
2022/07/07 10:17:02;;;;;;;6.80;2.50;;;10.50;99.90;;;;;;5063531;28;20376;-83
2022/07/07 10:19:32;;;;;;;4.88;2.50;;;10.40;99.90;;;;;;5050535;28;20384;-83
2022/07/07 10:22:00;;;;;;;3.75;2.63;;;10.30;99.90;;;;;;5048775;28;20488;-82
2022/07/07 10:24:29;;;;;;;3.90;2.60;;;10.30;99.90;;;;;;5043547;28;20380;-82
2022/07/07 10:27:04;;;;;;;3.37;2.60;;;10.20;99.90;;;;;;5043017;28;20484;-82
2022/07/07 10:29:49;;;;;;;3.95;2.67;;;10.20;99.90;;;;;;5045450;28;20467;-81
2022/07/07 10:32:18;;;;;;;4.05;2.95;;;10.20;99.90;;;;;;5061328;28;20386;-81
2022/07/07 10:34:55;;;;;;;5.68;3.50;;;10.20;99.90;;;;;;5050553;28;20914;-83
2022/07/07 10:37:24;;;;;;;4.60;3.10;;;10.10;99.90;;;;;;5050710;28;20887;-82
2022/07/07 10:39:56;;;;;;;5.60;3.73;;;10.10;99.90;;;;;;5050663;28;20382;-81
2022/07/07 10:42:39;;;;;;;8.52;6.18;;;10.00;99.90;;;;;;5050774;28;20475;-81
2022/07/07 10:45:08;;;;;;;10.38;6.13;;;10.10;99.90;;;;;;5050040;28;20453;-81
2022/07/07 10:47:36;;;;;;;7.07;4.13;;;10.20;99.90;;;;;;5048806;28;20474;-82
2022/07/07 10:50:21;;;;;;;3.22;2.00;;;10.20;99.90;;;;;;5050632;28;20380;-81
2022/07/07 10:52:48;;;;;;;3.47;1.98;;;10.30;99.90;;;;;;5047984;28;20947;-83
2022/07/07 10:55:15;;;;;;;2.83;1.70;;;10.40;99.90;;;;;;5050132;28;20407;-83
2022/07/07 10:57:45;;;;;;;2.58;2.00;;;10.30;99.90;;;;;;5040905;28;20388;-82
2022/07/07 11:00:28;;;;;;;1.40;1.10;;;10.40;99.90;;;;;;5050756;28;20457;-83
2022/07/07 11:02:58;;;;;;;3.30;1.40;;;10.50;99.90;;;;;;5049807;28;20392;-82
2022/07/07 11:05:29;;;;;;;2.85;2.65;;;10.60;99.90;;;;;;5050010;28;20403;-82
2022/07/07 11:07:59;;;;;;;4.88;4.22;;;10.70;99.90;;;;;;5050313;28;20372;-81
2022/07/07 11:10:53;;;;;;;3.20;2.45;;;10.70;99.90;;;;;;5050343;28;20380;-83
2022/07/07 11:13:34;;;;;;;2.70;1.40;;;10.70;99.90;;;;;;5050144;28;20395;-82
2022/07/07 11:16:10;;;;;;;2.03;1.30;;;10.70;99.90;;;;;;5050183;28;20399;-82
2022/07/07 11:18:37;;;;;;;1.30;0.90;;;10.70;99.90;;;;;;5048968;28;20422;-83
2022/07/07 11:21:06;;;;;;;2.58;1.13;;;10.80;99.90;;;;;;5047852;28;20414;-83
2022/07/07 11:23:50;;;;;;;1.63;1.45;;;10.90;99.90;;;;;;5035412;28;20369;-82
2022/07/07 11:26:23;;;;;;;3.25;1.33;;;10.90;99.90;;;;;;5033418;28;20392;-82
2022/07/07 11:28:58;;;;;;;2.15;1.50;;;10.90;99.90;;;;;;5034584;28;20463;-83
2022/07/07 11:31:28;;;;;;;1.73;1.10;;;10.80;99.90;;;;;;5036174;28;20393;-83
2022/07/07 11:33:57;;;;;;;1.40;0.90;;;10.80;99.90;;;;;;5053397;28;20399;-83
2022/07/07 11:36:25;;;;;;;1.63;0.90;;;10.70;99.90;;;;;;5056941;28;20443;-82
2022/07/07 11:38:58;;;;;;;2.38;1.73;;;10.70;99.90;;;;;;5047069;28;20875;-83
2022/07/07 11:42:04;;;;;;;5.35;3.47;;;10.70;99.90;;;;;;5054068;28;20411;-84
2022/07/07 11:44:31;;;;;;;4.35;3.35;;;10.80;99.90;;;;;;5011557;28;20391;-84
2022/07/07 11:46:58;;;;;;;2.72;1.95;;;10.70;99.90;;;;;;5003109;28;20384;-83
2022/07/07 11:49:26;;;;;;;2.83;0.70;;;10.80;99.90;;;;;;4976423;28;20424;-83
2022/07/07 11:51:53;;;;;;;5.75;0.80;;;10.70;99.90;;;;;;4993110;28;20920;-83
2022/07/07 11:54:20;;;;;;;2.60;0.73;;;10.70;99.90;;;;;;5011945;28;20395;-85
2022/07/07 11:56:47;;;;;;;1.90;0.80;;;10.60;99.90;;;;;;4993679;28;20771;-83
2022/07/07 11:59:14;;;;;;;2.08;0.90;;;10.60;99.90;;;;;;5006044;28;20803;-83
2022/07/07 12:01:43;;;;;;;1.20;0.70;;;10.40;99.90;;;;;;5008041;28;20420;-84
2022/07/07 12:04:21;;;;;;;1.20;0.70;;;10.10;99.90;;;;;;5010394;28;20399;-84
2022/07/07 12:06:50;;;;;;;1.20;0.80;;;10.00;99.90;;;;;;4993220;28;20428;-83
2022/07/07 12:09:18;;;;;;;4.00;1.20;;;9.80;99.90;;;;;;5010671;28;20884;-84
2022/07/07 12:11:45;;;;;;;1.80;1.27;;;9.80;99.90;;;;;;5001774;28;20404;-83
2022/07/07 12:14:13;;;;;;;3.60;1.30;;;9.70;99.90;;;;;;5009741;28;20759;-83
2022/07/07 12:16:49;;;;;;;4.40;2.42;;;9.70;99.90;;;;;;4999637;28;20747;-83
2022/07/07 12:19:17;;;;;;;3.08;1.83;;;9.70;99.90;;;;;;5001510;28;20394;-84
2022/07/07 12:21:50;;;;;;;1.98;1.10;;;9.60;99.90;;;;;;5038297;28;20498;-85
2022/07/07 12:24:21;;;;;;;2.72;1.50;;;9.50;99.90;;;;;;5037893;28;20383;-84
2022/07/07 12:26:51;;;;;;;4.55;2.28;;;9.40;99.90;;;;;;5051423;28;20383;-83
2022/07/07 12:29:22;;;;;;;2.83;2.10;;;9.20;99.90;;;;;;5040006;28;20419;-82
2022/07/07 12:31:54;;;;;;;3.60;2.00;;;9.20;99.90;;;;;;5046088;28;20384;-84
2022/07/07 12:34:25;;;;;;;2.85;2.00;;;9.20;99.90;;;;;;5050425;28;21337;-83
2022/07/07 12:36:52;;;;;;;4.55;1.83;;;9.10;99.90;;;;;;5043154;28;20372;-83
2022/07/07 12:39:20;;;;;;;4.07;1.85;;;9.10;99.90;;;;;;5051577;28;20776;-83
2022/07/07 12:41:53;;;;;;;3.05;1.95;;;9.00;99.90;;;;;;5044770;28;20450;-82
2022/07/07 12:44:30;;;;;;;4.25;2.30;;;9.00;99.90;;;;;;5051653;28;20441;-83
2022/07/07 12:46:59;;;;;;;2.77;1.90;;;8.90;99.90;;;;;;5048688;28;20390;-83
2022/07/07 12:49:26;;;;;;;4.43;2.28;;;8.90;99.90;;;;;;5047819;28;20387;-82
2022/07/07 12:51:57;;;;;;;3.05;2.30;;;8.80;99.90;;;;;;5051336;28;20384;-87
2022/07/07 12:54:27;;;;;;;3.42;1.80;;;8.80;99.90;;;;;;5051872;28;20422;-83
2022/07/07 12:57:05;;;;;;;2.53;1.80;;;8.70;99.90;;;;;;5052451;28;20375;-83
2022/07/07 12:59:44;;;;;;;4.28;1.90;;;8.70;99.90;;;;;;5050561;28;20410;-85
2022/07/07 13:02:13;;;;;;;2.65;1.70;;;8.60;99.90;;;;;;5048421;28;20853;-84